sensor_id;sensor_type;location;lat;lon;timestamp;temperature;humidity
16827;DHT22;8530;49.540;8.576;2024-03-23T00:54:13;11.30;91.10
16827;DHT22;8530;49.540;8.576;2024-03-23T00:56:40;11.30;91.20
16827;DHT22;8530;49.540;8.576;2024-03-23T00:59:05;11.30;91.30
16827;DHT22;8530;49.540;8.576;2024-03-23T01:01:32;11.40;91.50
16827;DHT22;8530;49.540;8.576;2024-03-23T01:03:58;11.40;91.50
16827;DHT22;8530;49.540;8.576;2024-03-23T01:06:25;11.50;91.60
16827;DHT22;8530;49.540;8.576;2024-03-23T01:08:50;11.50;91.70
16827;DHT22;8530;49.540;8.576;2024-03-23T01:11:19;11.60;91.80
16827;DHT22;8530;49.540;8.576;2024-03-23T01:13:45;11.60;91.90
16827;DHT22;8530;49.540;8.576;2024-03-23T01:16:11;11.70;92.00
16827;DHT22;8530;49.540;8.576;2024-03-23T01:18:37;11.80;92.00
16827;DHT22;8530;49.540;8.576;2024-03-23T01:21:04;11.90;92.10
16827;DHT22;8530;49.540;8.576;2024-03-23T01:23:30;11.90;92.10
16827;DHT22;8530;49.540;8.576;2024-03-23T01:25:56;12.00;92.10
16827;DHT22;8530;49.540;8.576;2024-03-23T01:28:23;12.00;92.10
16827;DHT22;8530;49.540;8.576;2024-03-23T01:30:50;12.10;92.10
16827;DHT22;8530;49.540;8.576;2024-03-23T01:33:16;12.20;92.20
16827;DHT22;8530;49.540;8.576;2024-03-23T01:35:42;12.20;92.20
16827;DHT22;8530;49.540;8.576;2024-03-23T01:38:08;12.20;92.20
16827;DHT22;8530;49.540;8.576;2024-03-23T01:40:35;12.30;92.30
16827;DHT22;8530;49.540;8.576;2024-03-23T01:43:04;12.30;92.30
16827;DHT22;8530;49.540;8.576;2024-03-23T01:45:32;12.30;92.30
16827;DHT22;8530;49.540;8.576;2024-03-23T01:47:58;12.40;92.30
16827;DHT22;8530;49.540;8.576;2024-03-23T01:50:25;12.40;92.30
16827;DHT22;8530;49.540;8.576;2024-03-23T01:52:51;12.50;92.40
16827;DHT22;8530;49.540;8.576;2024-03-23T01:55:18;12.50;92.40
16827;DHT22;8530;49.540;8.576;2024-03-23T01:57:43;12.50;92.40
16827;DHT22;8530;49.540;8.576;2024-03-23T02:00:11;12.50;92.40
16827;DHT22;8530;49.540;8.576;2024-03-23T02:02:42;12.50;92.40
16827;DHT22;8530;49.540;8.576;2024-03-23T02:05:10;12.50;92.40
16827;DHT22;8530;49.540;8.576;2024-03-23T02:07:37;12.50;92.30
16827;DHT22;8530;49.540;8.576;2024-03-23T02:10:05;12.40;92.30
16827;DHT22;8530;49.540;8.576;2024-03-23T02:12:31;12.40;92.40
16827;DHT22;8530;49.540;8.576;2024-03-23T02:14:58;12.40;92.40
16827;DHT22;8530;49.540;8.576;2024-03-23T02:17:23;12.40;92.40
16827;DHT22;8530;49.540;8.576;2024-03-23T02:19:52;12.40;92.40
16827;DHT22;8530;49.540;8.576;2024-03-23T02:22:17;12.40;92.40
16827;DHT22;8530;49.540;8.576;2024-03-23T02:24:45;12.40;92.40
16827;DHT22;8530;49.540;8.576;2024-03-23T02:27:11;12.40;92.40
16827;DHT22;8530;49.540;8.576;2024-03-23T02:29:38;12.40;92.40
16827;DHT22;8530;49.540;8.576;2024-03-23T02:32:04;12.40;92.50
16827;DHT22;8530;49.540;8.576;2024-03-23T02:34:31;12.40;92.50
16827;DHT22;8530;49.540;8.576;2024-03-23T02:36:57;12.40;92.50
16827;DHT22;8530;49.540;8.576;2024-03-23T02:39:24;12.40;92.50
16827;DHT22;8530;49.540;8.576;2024-03-23T02:41:51;12.40;92.50
16827;DHT22;8530;49.540;8.576;2024-03-23T02:44:17;12.40;92.50
16827;DHT22;8530;49.540;8.576;2024-03-23T02:46:43;12.40;92.50
16827;DHT22;8530;49.540;8.576;2024-03-23T02:49:10;12.40;92.60
16827;DHT22;8530;49.540;8.576;2024-03-23T02:51:35;12.40;92.60
16827;DHT22;8530;49.540;8.576;2024-03-23T02:54:02;12.40;92.60
16827;DHT22;8530;49.540;8.576;2024-03-23T02:56:28;12.40;92.60
16827;DHT22;8530;49.540;8.576;2024-03-23T02:58:56;12.40;92.60
16827;DHT22;8530;49.540;8.576;2024-03-23T03:01:22;12.40;92.70
16827;DHT22;8530;49.540;8.576;2024-03-23T03:03:48;12.50;92.70
16827;DHT22;8530;49.540;8.576;2024-03-23T03:06:23;12.40;92.70
16827;DHT22;8530;49.540;8.576;2024-03-23T03:08:50;12.40;92.70
16827;DHT22;8530;49.540;8.576;2024-03-23T03:11:15;12.30;92.80
16827;DHT22;8530;49.540;8.576;2024-03-23T03:13:42;12.30;92.70
16827;DHT22;8530;49.540;8.576;2024-03-23T03:16:10;12.30;92.80
16827;DHT22;8530;49.540;8.576;2024-03-23T03:18:36;12.20;92.70
16827;DHT22;8530;49.540;8.576;2024-03-23T03:21:02;12.20;92.90
16827;DHT22;8530;49.540;8.576;2024-03-23T03:23:30;12.10;92.90
16827;DHT22;8530;49.540;8.576;2024-03-23T03:25:56;12.10;93.00
16827;DHT22;8530;49.540;8.576;2024-03-23T03:28:23;12.10;93.00
16827;DHT22;8530;49.540;8.576;2024-03-23T03:30:49;12.10;93.00
16827;DHT22;8530;49.540;8.576;2024-03-23T03:33:17;12.10;93.00
16827;DHT22;8530;49.540;8.576;2024-03-23T03:35:43;12.10;93.10
16827;DHT22;8530;49.540;8.576;2024-03-23T03:38:11;12.10;93.00
16827;DHT22;8530;49.540;8.576;2024-03-23T03:40:36;12.20;93.00
16827;DHT22;8530;49.540;8.576;2024-03-23T03:43:03;12.30;93.00
16827;DHT22;8530;49.540;8.576;2024-03-23T03:45:29;12.40;92.90
16827;DHT22;8530;49.540;8.576;2024-03-23T03:47:56;12.50;92.90
16827;DHT22;8530;49.540;8.576;2024-03-23T03:50:23;12.60;92.80
16827;DHT22;8530;49.540;8.576;2024-03-23T03:52:49;12.60;92.70
16827;DHT22;8530;49.540;8.576;2024-03-23T03:55:16;12.70;92.60
16827;DHT22;8530;49.540;8.576;2024-03-23T03:57:43;12.70;92.50
16827;DHT22;8530;49.540;8.576;2024-03-23T04:00:10;12.80;92.40
16827;DHT22;8530;49.540;8.576;2024-03-23T04:02:37;12.80;92.20
16827;DHT22;8530;49.540;8.576;2024-03-23T04:05:03;12.80;92.10
16827;DHT22;8530;49.540;8.576;2024-03-23T04:07:31;12.80;92.00
16827;DHT22;8530;49.540;8.576;2024-03-23T04:09:57;12.80;91.90
16827;DHT22;8530;49.540;8.576;2024-03-23T04:12:24;12.90;91.80
16827;DHT22;8530;49.540;8.576;2024-03-23T04:14:50;12.80;91.70
16827;DHT22;8530;49.540;8.576;2024-03-23T04:17:16;12.90;91.60
16827;DHT22;8530;49.540;8.576;2024-03-23T04:19:43;12.90;91.50
16827;DHT22;8530;49.540;8.576;2024-03-23T04:22:10;12.90;91.40
16827;DHT22;8530;49.540;8.576;2024-03-23T04:24:37;12.90;91.30
16827;DHT22;8530;49.540;8.576;2024-03-23T04:27:04;12.90;91.20
16827;DHT22;8530;49.540;8.576;2024-03-23T04:29:30;12.90;91.10
16827;DHT22;8530;49.540;8.576;2024-03-23T04:31:57;12.90;91.00
16827;DHT22;8530;49.540;8.576;2024-03-23T04:34:22;12.90;90.90
16827;DHT22;8530;49.540;8.576;2024-03-23T04:36:49;12.90;90.90
16827;DHT22;8530;49.540;8.576;2024-03-23T04:39:15;13.00;90.80
16827;DHT22;8530;49.540;8.576;2024-03-23T04:41:44;12.90;90.70
16827;DHT22;8530;49.540;8.576;2024-03-23T04:44:10;13.00;90.70
16827;DHT22;8530;49.540;8.576;2024-03-23T04:46:37;13.00;90.60
16827;DHT22;8530;49.540;8.576;2024-03-23T04:49:04;13.00;90.50
16827;DHT22;8530;49.540;8.576;2024-03-23T04:51:35;13.00;90.40
16827;DHT22;8530;49.540;8.576;2024-03-23T04:54:02;13.00;90.30
16827;DHT22;8530;49.540;8.576;2024-03-23T04:56:29;13.10;90.20
16827;DHT22;8530;49.540;8.576;2024-03-23T04:58:58;13.10;90.10
16827;DHT22;8530;49.540;8.576;2024-03-23T05:01:27;13.10;90.00
16827;DHT22;8530;49.540;8.576;2024-03-23T05:03:53;13.10;89.90
16827;DHT22;8530;49.540;8.576;2024-03-23T05:06:19;13.10;89.60
16827;DHT22;8530;49.540;8.576;2024-03-23T05:08:46;13.10;89.40
16827;DHT22;8530;49.540;8.576;2024-03-23T05:11:11;13.00;89.20
16827;DHT22;8530;49.540;8.576;2024-03-23T05:13:38;13.10;89.10
16827;DHT22;8530;49.540;8.576;2024-03-23T05:16:06;13.00;88.90
16827;DHT22;8530;49.540;8.576;2024-03-23T05:18:32;13.00;88.70
16827;DHT22;8530;49.540;8.576;2024-03-23T05:20:58;13.00;88.60
16827;DHT22;8530;49.540;8.576;2024-03-23T05:23:25;12.90;88.50
16827;DHT22;8530;49.540;8.576;2024-03-23T05:25:51;12.80;88.50
16827;DHT22;8530;49.540;8.576;2024-03-23T05:28:18;12.50;88.20
16827;DHT22;8530;49.540;8.576;2024-03-23T05:30:50;12.20;88.00
16827;DHT22;8530;49.540;8.576;2024-03-23T05:33:18;11.80;87.60
16827;DHT22;8530;49.540;8.576;2024-03-23T05:35:44;11.50;87.60
16827;DHT22;8530;49.540;8.576;2024-03-23T05:38:10;11.30;88.00
16827;DHT22;8530;49.540;8.576;2024-03-23T05:40:36;11.00;87.90
16827;DHT22;8530;49.540;8.576;2024-03-23T05:43:05;10.80;87.90
16827;DHT22;8530;49.540;8.576;2024-03-23T05:45:31;10.60;87.80
16827;DHT22;8530;49.540;8.576;2024-03-23T05:47:58;10.40;87.90
16827;DHT22;8530;49.540;8.576;2024-03-23T05:50:25;10.30;88.40
16827;DHT22;8530;49.540;8.576;2024-03-23T05:52:52;10.20;88.40
16827;DHT22;8530;49.540;8.576;2024-03-23T05:55:17;10.10;88.80
16827;DHT22;8530;49.540;8.576;2024-03-23T05:57:44;10.20;89.20
16827;DHT22;8530;49.540;8.576;2024-03-23T06:00:11;10.10;89.10
16827;DHT22;8530;49.540;8.576;2024-03-23T06:02:42;10.10;89.10
16827;DHT22;8530;49.540;8.576;2024-03-23T06:05:10;10.10;89.20
16827;DHT22;8530;49.540;8.576;2024-03-23T06:07:37;10.10;89.30
16827;DHT22;8530;49.540;8.576;2024-03-23T06:10:05;10.10;89.50
16827;DHT22;8530;49.540;8.576;2024-03-23T06:12:31;10.00;89.40
16827;DHT22;8530;49.540;8.576;2024-03-23T06:14:58;10.00;89.30
16827;DHT22;8530;49.540;8.576;2024-03-23T06:17:23;10.00;89.20
16827;DHT22;8530;49.540;8.576;2024-03-23T06:19:50;9.90;90.10
16827;DHT22;8530;49.540;8.576;2024-03-23T06:22:16;9.90;90.10
16827;DHT22;8530;49.540;8.576;2024-03-23T06:24:44;10.00;89.50
16827;DHT22;8530;49.540;8.576;2024-03-23T06:27:10;10.00;89.50
16827;DHT22;8530;49.540;8.576;2024-03-23T06:29:37;10.00;89.60
16827;DHT22;8530;49.540;8.576;2024-03-23T06:32:02;10.10;89.60
16827;DHT22;8530;49.540;8.576;2024-03-23T06:34:30;10.10;89.60
16827;DHT22;8530;49.540;8.576;2024-03-23T06:36:56;10.20;89.80
16827;DHT22;8530;49.540;8.576;2024-03-23T06:39:23;10.20;89.80
16827;DHT22;8530;49.540;8.576;2024-03-23T06:41:53;10.30;89.90
16827;DHT22;8530;49.540;8.576;2024-03-23T06:44:20;10.40;89.90
16827;DHT22;8530;49.540;8.576;2024-03-23T06:46:47;10.50;89.80
16827;DHT22;8530;49.540;8.576;2024-03-23T06:49:14;10.60;89.70
16827;DHT22;8530;49.540;8.576;2024-03-23T06:51:41;10.60;89.10
16827;DHT22;8530;49.540;8.576;2024-03-23T06:54:07;10.60;89.00
16827;DHT22;8530;49.540;8.576;2024-03-23T06:56:34;10.50;88.70
16827;DHT22;8530;49.540;8.576;2024-03-23T06:59:01;10.40;88.30
16827;DHT22;8530;49.540;8.576;2024-03-23T07:01:28;10.30;88.00
16827;DHT22;8530;49.540;8.576;2024-03-23T07:03:54;10.30;88.20
16827;DHT22;8530;49.540;8.576;2024-03-23T07:06:21;10.30;88.20
16827;DHT22;8530;49.540;8.576;2024-03-23T07:08:46;10.30;88.30
16827;DHT22;8530;49.540;8.576;2024-03-23T07:11:18;10.40;88.10
16827;DHT22;8530;49.540;8.576;2024-03-23T07:13:44;10.50;88.20
16827;DHT22;8530;49.540;8.576;2024-03-23T07:16:13;10.70;88.10
16827;DHT22;8530;49.540;8.576;2024-03-23T07:18:38;10.70;87.80
16827;DHT22;8530;49.540;8.576;2024-03-23T07:21:05;10.80;87.80
16827;DHT22;8530;49.540;8.576;2024-03-23T07:23:32;10.90;87.70
16827;DHT22;8530;49.540;8.576;2024-03-23T07:26:00;10.90;87.10
16827;DHT22;8530;49.540;8.576;2024-03-23T07:28:26;10.90;86.50
16827;DHT22;8530;49.540;8.576;2024-03-23T07:31:12;10.80;85.90
16827;DHT22;8530;49.540;8.576;2024-03-23T07:33:42;10.80;85.70
16827;DHT22;8530;49.540;8.576;2024-03-23T07:36:09;10.80;85.50
16827;DHT22;8530;49.540;8.576;2024-03-23T07:38:35;10.90;85.20
16827;DHT22;8530;49.540;8.576;2024-03-23T07:41:03;11.00;85.00
16827;DHT22;8530;49.540;8.576;2024-03-23T07:43:29;11.10;84.90
16827;DHT22;8530;49.540;8.576;2024-03-23T07:45:56;11.20;84.50
16827;DHT22;8530;49.540;8.576;2024-03-23T07:48:23;11.30;83.90
16827;DHT22;8530;49.540;8.576;2024-03-23T07:50:59;11.20;83.60
16827;DHT22;8530;49.540;8.576;2024-03-23T07:53:25;11.20;82.80
16827;DHT22;8530;49.540;8.576;2024-03-23T07:55:54;11.20;82.90
16827;DHT22;8530;49.540;8.576;2024-03-23T07:58:20;11.30;82.80
16827;DHT22;8530;49.540;8.576;2024-03-23T08:00:47;11.40;82.50
16827;DHT22;8530;49.540;8.576;2024-03-23T08:03:12;11.40;81.70
16827;DHT22;8530;49.540;8.576;2024-03-23T08:05:41;11.40;81.70
16827;DHT22;8530;49.540;8.576;2024-03-23T08:08:06;11.90;83.00
16827;DHT22;8530;49.540;8.576;2024-03-23T08:10:33;12.20;83.00
16827;DHT22;8530;49.540;8.576;2024-03-23T08:12:59;12.70;83.10
16827;DHT22;8530;49.540;8.576;2024-03-23T08:15:26;13.30;83.30
16827;DHT22;8530;49.540;8.576;2024-03-23T08:17:52;13.50;81.60
16827;DHT22;8530;49.540;8.576;2024-03-23T08:20:18;13.80;81.70
16827;DHT22;8530;49.540;8.576;2024-03-23T08:22:46;14.70;84.90
16827;DHT22;8530;49.540;8.576;2024-03-23T08:25:13;16.60;90.60
16827;DHT22;8530;49.540;8.576;2024-03-23T08:27:38;18.50;91.00
16827;DHT22;8530;49.540;8.576;2024-03-23T08:30:06;20.30;90.10
16827;DHT22;8530;49.540;8.576;2024-03-23T08:32:32;21.50;85.00
16827;DHT22;8530;49.540;8.576;2024-03-23T08:34:59;22.60;80.30
16827;DHT22;8530;49.540;8.576;2024-03-23T08:37:25;23.50;73.70
16827;DHT22;8530;49.540;8.576;2024-03-23T08:39:54;24.40;68.70
16827;DHT22;8530;49.540;8.576;2024-03-23T08:42:19;25.00;61.50
16827;DHT22;8530;49.540;8.576;2024-03-23T08:44:46;25.00;55.50
16827;DHT22;8530;49.540;8.576;2024-03-23T08:47:15;24.10;49.20
16827;DHT22;8530;49.540;8.576;2024-03-23T08:49:41;22.70;45.10
16827;DHT22;8530;49.540;8.576;2024-03-23T08:52:07;21.70;43.50
16827;DHT22;8530;49.540;8.576;2024-03-23T08:54:34;21.10;42.50
16827;DHT22;8530;49.540;8.576;2024-03-23T08:57:01;20.60;41.50
16827;DHT22;8530;49.540;8.576;2024-03-23T08:59:28;19.80;40.30
16827;DHT22;8530;49.540;8.576;2024-03-23T09:01:54;18.80;39.00
16827;DHT22;8530;49.540;8.576;2024-03-23T09:04:20;17.70;38.50
16827;DHT22;8530;49.540;8.576;2024-03-23T09:06:47;17.00;38.90
16827;DHT22;8530;49.540;8.576;2024-03-23T09:09:13;16.50;38.70
16827;DHT22;8530;49.540;8.576;2024-03-23T09:11:39;16.00;38.60
16827;DHT22;8530;49.540;8.576;2024-03-23T09:14:07;15.70;38.80
16827;DHT22;8530;49.540;8.576;2024-03-23T09:16:34;15.50;39.10
16827;DHT22;8530;49.540;8.576;2024-03-23T09:19:01;15.40;39.20
16827;DHT22;8530;49.540;8.576;2024-03-23T09:21:27;15.20;39.20
16827;DHT22;8530;49.540;8.576;2024-03-23T09:23:53;15.00;39.20
16827;DHT22;8530;49.540;8.576;2024-03-23T09:26:23;14.80;39.40
16827;DHT22;8530;49.540;8.576;2024-03-23T09:28:50;14.80;39.90
16827;DHT22;8530;49.540;8.576;2024-03-23T09:31:17;14.90;40.30
16827;DHT22;8530;49.540;8.576;2024-03-23T09:33:43;14.90;40.90
16827;DHT22;8530;49.540;8.576;2024-03-23T09:36:09;14.90;40.40
16827;DHT22;8530;49.540;8.576;2024-03-23T09:38:36;15.00;40.50
16827;DHT22;8530;49.540;8.576;2024-03-23T09:41:07;15.20;40.80
16827;DHT22;8530;49.540;8.576;2024-03-23T09:43:34;15.40;40.90
16827;DHT22;8530;49.540;8.576;2024-03-23T09:46:04;15.40;40.60
16827;DHT22;8530;49.540;8.576;2024-03-23T09:48:32;15.30;40.30
16827;DHT22;8530;49.540;8.576;2024-03-23T09:50:58;15.10;40.00
16827;DHT22;8530;49.540;8.576;2024-03-23T09:53:25;15.00;40.10
16827;DHT22;8530;49.540;8.576;2024-03-23T09:55:51;15.10;40.40
16827;DHT22;8530;49.540;8.576;2024-03-23T09:58:18;15.10;40.40
16827;DHT22;8530;49.540;8.576;2024-03-23T10:00:44;15.10;40.50
16827;DHT22;8530;49.540;8.576;2024-03-23T10:03:11;15.10;40.50
16827;DHT22;8530;49.540;8.576;2024-03-23T10:05:38;15.10;40.50
16827;DHT22;8530;49.540;8.576;2024-03-23T10:08:17;15.20;40.70
16827;DHT22;8530;49.540;8.576;2024-03-23T10:10:44;15.30;41.30
16827;DHT22;8530;49.540;8.576;2024-03-23T10:13:11;15.50;40.90
16827;DHT22;8530;49.540;8.576;2024-03-23T10:15:38;15.70;40.90
16827;DHT22;8530;49.540;8.576;2024-03-23T10:18:17;16.00;40.90
16827;DHT22;8530;49.540;8.576;2024-03-23T10:20:47;16.30;40.60
16827;DHT22;8530;49.540;8.576;2024-03-23T10:23:16;16.40;40.40
16827;DHT22;8530;49.540;8.576;2024-03-23T10:25:42;16.40;40.00
16827;DHT22;8530;49.540;8.576;2024-03-23T10:28:09;16.40;39.80
16827;DHT22;8530;49.540;8.576;2024-03-23T10:30:37;16.40;39.40
16827;DHT22;8530;49.540;8.576;2024-03-23T10:33:10;16.30;39.00
16827;DHT22;8530;49.540;8.576;2024-03-23T10:35:37;16.30;38.80
16827;DHT22;8530;49.540;8.576;2024-03-23T10:38:06;16.20;38.10
16827;DHT22;8530;49.540;8.576;2024-03-23T10:40:34;16.00;37.80
16827;DHT22;8530;49.540;8.576;2024-03-23T10:43:03;15.80;37.50
16827;DHT22;8530;49.540;8.576;2024-03-23T10:45:29;15.60;37.10
16827;DHT22;8530;49.540;8.576;2024-03-23T10:47:55;15.20;36.50
16827;DHT22;8530;49.540;8.576;2024-03-23T10:50:22;14.90;36.40
16827;DHT22;8530;49.540;8.576;2024-03-23T10:52:49;14.60;36.20
16827;DHT22;8530;49.540;8.576;2024-03-23T10:55:17;14.30;36.30
16827;DHT22;8530;49.540;8.576;2024-03-23T10:57:49;14.10;36.30
16827;DHT22;8530;49.540;8.576;2024-03-23T11:00:17;14.00;36.50
16827;DHT22;8530;49.540;8.576;2024-03-23T11:02:44;14.00;36.60
16827;DHT22;8530;49.540;8.576;2024-03-23T11:05:30;14.20;36.80
16827;DHT22;8530;49.540;8.576;2024-03-23T11:07:57;14.40;36.70
16827;DHT22;8530;49.540;8.576;2024-03-23T11:10:28;14.80;36.70
16827;DHT22;8530;49.540;8.576;2024-03-23T11:12:56;15.10;36.60
16827;DHT22;8530;49.540;8.576;2024-03-23T11:15:21;15.20;36.40
16827;DHT22;8530;49.540;8.576;2024-03-23T11:18:03;15.50;36.30
16827;DHT22;8530;49.540;8.576;2024-03-23T11:20:31;15.70;36.00
16827;DHT22;8530;49.540;8.576;2024-03-23T11:22:59;15.70;35.90
16827;DHT22;8530;49.540;8.576;2024-03-23T11:25:27;15.60;35.20
16827;DHT22;8530;49.540;8.576;2024-03-23T11:27:56;15.30;34.90
16827;DHT22;8530;49.540;8.576;2024-03-23T11:30:23;15.00;34.60
16827;DHT22;8530;49.540;8.576;2024-03-23T11:32:51;14.40;34.40
16827;DHT22;8530;49.540;8.576;2024-03-23T11:35:27;13.90;34.70
16827;DHT22;8530;49.540;8.576;2024-03-23T11:38:04;13.40;35.20
16827;DHT22;8530;49.540;8.576;2024-03-23T11:40:31;13.20;35.70
16827;DHT22;8530;49.540;8.576;2024-03-23T11:42:59;13.10;36.20
16827;DHT22;8530;49.540;8.576;2024-03-23T11:45:25;12.90;36.50
16827;DHT22;8530;49.540;8.576;2024-03-23T11:48:02;12.70;36.70
16827;DHT22;8530;49.540;8.576;2024-03-23T11:50:28;12.20;37.20
16827;DHT22;8530;49.540;8.576;2024-03-23T11:53:06;11.80;37.40
16827;DHT22;8530;49.540;8.576;2024-03-23T11:55:43;11.40;37.80
16827;DHT22;8530;49.540;8.576;2024-03-23T11:58:11;11.10;38.50
16827;DHT22;8530;49.540;8.576;2024-03-23T12:00:36;10.80;38.80
16827;DHT22;8530;49.540;8.576;2024-03-23T12:03:04;10.60;39.60
16827;DHT22;8530;49.540;8.576;2024-03-23T12:05:30;10.40;40.00
16827;DHT22;8530;49.540;8.576;2024-03-23T12:08:15;10.40;40.70
16827;DHT22;8530;49.540;8.576;2024-03-23T12:10:44;10.60;42.00
16827;DHT22;8530;49.540;8.576;2024-03-23T12:13:11;11.00;42.50
16827;DHT22;8530;49.540;8.576;2024-03-23T12:15:36;11.30;42.90
16827;DHT22;8530;49.540;8.576;2024-03-23T12:18:07;11.60;43.30
16827;DHT22;8530;49.540;8.576;2024-03-23T12:20:32;11.80;43.80
16827;DHT22;8530;49.540;8.576;2024-03-23T12:23:05;12.00;43.90
16827;DHT22;8530;49.540;8.576;2024-03-23T12:25:32;12.20;44.20
16827;DHT22;8530;49.540;8.576;2024-03-23T12:28:00;12.30;44.20
16827;DHT22;8530;49.540;8.576;2024-03-23T12:30:26;12.30;44.30
16827;DHT22;8530;49.540;8.576;2024-03-23T12:32:53;12.40;44.50
16827;DHT22;8530;49.540;8.576;2024-03-23T12:35:18;12.60;44.90
16827;DHT22;8530;49.540;8.576;2024-03-23T12:37:45;12.60;44.80
16827;DHT22;8530;49.540;8.576;2024-03-23T12:40:11;12.40;44.70
16827;DHT22;8530;49.540;8.576;2024-03-23T12:42:38;12.10;44.80
16827;DHT22;8530;49.540;8.576;2024-03-23T12:45:06;11.70;44.80
16827;DHT22;8530;49.540;8.576;2024-03-23T12:47:33;11.40;45.30
16827;DHT22;8530;49.540;8.576;2024-03-23T12:49:58;11.30;46.20
16827;DHT22;8530;49.540;8.576;2024-03-23T12:52:25;11.40;46.70
16827;DHT22;8530;49.540;8.576;2024-03-23T12:54:54;11.40;47.30
16827;DHT22;8530;49.540;8.576;2024-03-23T12:57:23;11.60;47.90
16827;DHT22;8530;49.540;8.576;2024-03-23T12:59:49;11.90;48.60
16827;DHT22;8530;49.540;8.576;2024-03-23T13:02:18;12.20;49.00
16827;DHT22;8530;49.540;8.576;2024-03-23T13:04:45;12.30;49.20
16827;DHT22;8530;49.540;8.576;2024-03-23T13:07:12;12.30;49.20
16827;DHT22;8530;49.540;8.576;2024-03-23T13:09:38;12.10;48.90
16827;DHT22;8530;49.540;8.576;2024-03-23T13:12:05;11.70;48.70
16827;DHT22;8530;49.540;8.576;2024-03-23T13:14:31;11.50;48.80
16827;DHT22;8530;49.540;8.576;2024-03-23T13:16:59;11.20;48.80
16827;DHT22;8530;49.540;8.576;2024-03-23T13:19:26;10.90;48.80
16827;DHT22;8530;49.540;8.576;2024-03-23T13:21:56;10.70;49.20
16827;DHT22;8530;49.540;8.576;2024-03-23T13:24:22;10.70;49.70
16827;DHT22;8530;49.540;8.576;2024-03-23T13:26:50;10.90;50.20
16827;DHT22;8530;49.540;8.576;2024-03-23T13:29:16;11.20;50.50
16827;DHT22;8530;49.540;8.576;2024-03-23T13:31:42;11.50;50.70
16827;DHT22;8530;49.540;8.576;2024-03-23T13:34:08;11.90;50.90
16827;DHT22;8530;49.540;8.576;2024-03-23T13:36:36;12.20;51.00
16827;DHT22;8530;49.540;8.576;2024-03-23T13:39:02;12.40;51.60
16827;DHT22;8530;49.540;8.576;2024-03-23T13:41:31;12.50;51.00
16827;DHT22;8530;49.540;8.576;2024-03-23T13:43:57;12.50;51.00
16827;DHT22;8530;49.540;8.576;2024-03-23T13:46:24;12.50;51.00
16827;DHT22;8530;49.540;8.576;2024-03-23T13:48:50;12.40;50.90
16827;DHT22;8530;49.540;8.576;2024-03-23T13:51:23;12.40;50.80
16827;DHT22;8530;49.540;8.576;2024-03-23T13:53:51;12.20;50.60
16827;DHT22;8530;49.540;8.576;2024-03-23T13:56:17;12.00;50.50
16827;DHT22;8530;49.540;8.576;2024-03-23T13:58:43;11.80;50.60
16827;DHT22;8530;49.540;8.576;2024-03-23T14:01:15;11.70;50.90
16827;DHT22;8530;49.540;8.576;2024-03-23T14:03:42;11.80;51.70
16827;DHT22;8530;49.540;8.576;2024-03-23T14:06:10;12.10;51.40
16827;DHT22;8530;49.540;8.576;2024-03-23T14:08:36;12.60;51.70
16827;DHT22;8530;49.540;8.576;2024-03-23T14:11:06;13.00;51.70
16827;DHT22;8530;49.540;8.576;2024-03-23T14:13:32;13.30;51.80
16827;DHT22;8530;49.540;8.576;2024-03-23T14:15:59;13.40;51.60
16827;DHT22;8530;49.540;8.576;2024-03-23T14:18:24;13.20;50.80
16827;DHT22;8530;49.540;8.576;2024-03-23T14:20:52;13.10;51.00
16827;DHT22;8530;49.540;8.576;2024-03-23T14:23:18;13.10;51.20
16827;DHT22;8530;49.540;8.576;2024-03-23T14:25:45;13.20;51.40
16827;DHT22;8530;49.540;8.576;2024-03-23T14:28:12;13.20;51.30
16827;DHT22;8530;49.540;8.576;2024-03-23T14:30:41;13.10;51.10
16827;DHT22;8530;49.540;8.576;2024-03-23T14:33:08;12.90;50.90
16827;DHT22;8530;49.540;8.576;2024-03-23T14:35:35;12.60;50.60
16827;DHT22;8530;49.540;8.576;2024-03-23T14:38:01;12.30;50.50
16827;DHT22;8530;49.540;8.576;2024-03-23T14:40:28;12.10;50.70
16827;DHT22;8530;49.540;8.576;2024-03-23T14:42:54;11.90;51.50
16827;DHT22;8530;49.540;8.576;2024-03-23T14:45:22;11.80;51.30
16827;DHT22;8530;49.540;8.576;2024-03-23T14:47:50;11.80;51.80
16827;DHT22;8530;49.540;8.576;2024-03-23T14:50:16;12.20;52.40
16827;DHT22;8530;49.540;8.576;2024-03-23T14:52:43;12.70;52.80
16827;DHT22;8530;49.540;8.576;2024-03-23T14:55:10;13.00;53.00
16827;DHT22;8530;49.540;8.576;2024-03-23T14:57:36;13.20;52.80
16827;DHT22;8530;49.540;8.576;2024-03-23T15:00:06;13.30;52.60
16827;DHT22;8530;49.540;8.576;2024-03-23T15:02:34;13.20;52.20
16827;DHT22;8530;49.540;8.576;2024-03-23T15:05:01;13.10;52.10
16827;DHT22;8530;49.540;8.576;2024-03-23T15:07:29;13.20;52.90
16827;DHT22;8530;49.540;8.576;2024-03-23T15:09:55;13.30;52.50
16827;DHT22;8530;49.540;8.576;2024-03-23T15:12:21;13.60;52.70
16827;DHT22;8530;49.540;8.576;2024-03-23T15:14:48;13.80;52.60
16827;DHT22;8530;49.540;8.576;2024-03-23T15:17:14;13.90;52.20
16827;DHT22;8530;49.540;8.576;2024-03-23T15:19:42;13.70;51.70
16827;DHT22;8530;49.540;8.576;2024-03-23T15:22:08;13.50;51.60
16827;DHT22;8530;49.540;8.576;2024-03-23T15:24:35;13.40;51.80
16827;DHT22;8530;49.540;8.576;2024-03-23T15:27:02;13.30;51.80
16827;DHT22;8530;49.540;8.576;2024-03-23T15:29:29;13.30;51.70
16827;DHT22;8530;49.540;8.576;2024-03-23T15:31:55;13.10;51.30
16827;DHT22;8530;49.540;8.576;2024-03-23T15:34:22;12.90;50.90
16827;DHT22;8530;49.540;8.576;2024-03-23T15:36:49;12.50;50.40
16827;DHT22;8530;49.540;8.576;2024-03-23T15:39:16;12.30;50.40
16827;DHT22;8530;49.540;8.576;2024-03-23T15:41:44;12.10;50.20
16827;DHT22;8530;49.540;8.576;2024-03-23T15:44:11;11.80;50.00
16827;DHT22;8530;49.540;8.576;2024-03-23T15:46:36;11.70;50.00
16827;DHT22;8530;49.540;8.576;2024-03-23T15:49:03;11.60;50.00
16827;DHT22;8530;49.540;8.576;2024-03-23T15:51:30;11.50;50.10
16827;DHT22;8530;49.540;8.576;2024-03-23T15:53:59;11.40;50.00
16827;DHT22;8530;49.540;8.576;2024-03-23T15:56:25;11.20;49.90
16827;DHT22;8530;49.540;8.576;2024-03-23T15:58:52;11.10;49.80
16827;DHT22;8530;49.540;8.576;2024-03-23T16:01:18;11.00;49.80
16827;DHT22;8530;49.540;8.576;2024-03-23T16:03:44;10.80;49.80
16827;DHT22;8530;49.540;8.576;2024-03-23T16:06:10;10.80;50.20
16827;DHT22;8530;49.540;8.576;2024-03-23T16:08:37;10.90;50.50
16827;DHT22;8530;49.540;8.576;2024-03-23T16:11:05;11.10;50.90
16827;DHT22;8530;49.540;8.576;2024-03-23T16:13:33;11.40;51.10
16827;DHT22;8530;49.540;8.576;2024-03-23T16:16:01;11.60;51.10
16827;DHT22;8530;49.540;8.576;2024-03-23T16:18:29;11.60;51.00
16827;DHT22;8530;49.540;8.576;2024-03-23T16:20:55;11.40;50.70
16827;DHT22;8530;49.540;8.576;2024-03-23T16:23:22;11.30;50.70
16827;DHT22;8530;49.540;8.576;2024-03-23T16:25:48;11.00;50.60
16827;DHT22;8530;49.540;8.576;2024-03-23T16:28:23;10.80;50.80
16827;DHT22;8530;49.540;8.576;2024-03-23T16:30:56;10.60;50.80
16827;DHT22;8530;49.540;8.576;2024-03-23T16:33:23;10.50;50.90
16827;DHT22;8530;49.540;8.576;2024-03-23T16:35:56;10.40;50.90
16827;DHT22;8530;49.540;8.576;2024-03-23T16:38:22;10.20;51.00
16827;DHT22;8530;49.540;8.576;2024-03-23T16:40:56;10.10;51.10